CGH2 weather

Gander (James Paton Memorial Regional Health Centre) Heliport
Gander, Newfoundland and Labrador, Canada

Public forecast

Using degrees Celsius for public forecast. Weather courtesy of forecast.io.

METAR (pilot weather report)

Closest report is Gander International Airport, 2.6 nm (4.8 km) ESE. Retrieved 2019/07/20 19:00 UTC (5 minutes ago):

CYQX 201900Z 36009KT 20SM FEW013 OVC018 13/08 A2967 RMK SC1SC7 SLP053 DENSITY ALT 700FT

TAF (pilot weather forecast)

Closest forecast is Gander International Airport, 2.6 nm (4.8 km) ESE. Retrieved 2019/07/20 18:39 UTC (26 minutes ago):

TAF CYQX 201738Z 2018/2118 03005KT P6SM BKN020 TEMPO 2018/2102 SCT020 BECMG 2100/2102 13008KT FM210200 13008KT P6SM SCT003 BKN040 PROB30 2102/2110 1SM BR OVC003 FM211000 14010KT P6SM FEW006 BKN015 FM211500 14010KT 2SM -RA BR OVC002 RMK NXT FCST BY 210000Z